Terminal Aerodrome Forecast
Issued by NWS

Home | Current Version | Previous Version | Text Only | Print | Product List | Glossary On
Versions: 1 2 3 4 5 6 7 8 9 10 11 12 13 14 15 16 17 18 19 20 21 22 23 24 25
000
FTUS46 KSEW 051400 AAA
TAFSEA
TAF AMD
KSEA 051400Z 0514/0618 13003KT P6SM BKN150
     FM052000 34005KT P6SM BKN200
     FM060300 04005KT P6SM BKN200
     FM061200 VRB04KT P6SM SCT200=

USA.gov is the U.S. government's official web portal to all federal, state and local government web resources and services.